Hauptseite
METAR-TAF:

METAR-TAF

Flughäfen :

Altenstadt, Deutschland

Heeresflugplatz Altenstadt

Breite: 47-50N, Länge: 010-52E, Höhe: 739 m

Beobachtung

Neuester Wetterbericht von vor 1 Stunde und 1 Minuten, um 23:20 UTC
Wind 17 kt aus West
Temperatur 0°C
Luftfeuchtigkeit 93%
Luftdruck 1021 hPa

METAR: ETHA 192320Z AUTO 26017KT //// // ////// 00/M01 Q1021 ///

Zeit: 01:21 (00:21 UTC)


TAF: fehlend

Wetterbeobachtungen und Prognosen von mehr als 4000 Flughäfen (METAR und TAF Bericht).

Die verfügbaren Stationen werden durch gelbe und rote Markierungen auf der Karte dargestellt.

Führen Sie die Maus auf sie, um den Namen der Station zu sehen.

Darauf klicken, um die Beobachtung von Wetterbeobachtungen und Prognosen zu sehen.

Um die Karte zu ändern : klicken Sie auf den grünen Tasten mit einem schwarzen Kreuz Zum Vergrößern, auf den grünen Button mit einem Gedankenstrich zu verkleinern, oder auf die grünen Pfeile für benachbarte Karten.


METAR-TAF: